This is the latest recevied weather packets stored in our database for station/object WC4PEM-15. If no packets are shown the sender has not sent any weather packets the latest 10 day(s).
| Time | Temp. | Humidity | Pressure | Rain* | Wind** | Luminosity | Snow |
|---|---|---|---|---|---|---|---|
| 1778072756 | 23.33° C | 86% | 1016.9 hPa | 0 mm | - | - | - |
| 1778072697 | 23.33° C | 86% | 1016.9 hPa | 0 mm | - | - | - |
| 1778072614 | 22.78° C | 88% | 1016.6 hPa | 0 mm | - | - | - |
| 1778072460 | 23.33° C | 86% | 1016.8 hPa | 0 mm | - | - | - |
| 1778072398 | 23.33° C | 86% | 1016.8 hPa | 0 mm | - | - | - |
| 1778072142 | 22.78° C | 88% | 1016.6 hPa | 0 mm | - | - | - |
| 1778072097 | 22.78° C | 88% | 1016.6 hPa | 0 mm | - | - | - |
| 1778071942 | 22.78° C | 89% | 1016.6 hPa | 0 mm | - | - | - |
| 1778071875 | 22.78° C | 89% | 1016.6 hPa | 0 mm | - | - | - |
| 1778071802 | 22.22° C | 90% | 1016.6 hPa | 0 mm | - | - | - |
| 1778071798 | 22.78° C | 89% | 1016.6 hPa | 0 mm | - | - | - |
| 1778071532 | 22.22° C | 90% | 1016.6 hPa | 0 mm | - | - | - |
| 1778071497 | 22.22° C | 90% | 1016.6 hPa | 0 mm | - | - | - |
| 1778071197 | 21.67° C | 90% | 1016.4 hPa | 0 mm | - | - | - |
| 1778071189 | 21.67° C | 91% | 1016.5 hPa | 0 mm | - | - | - |
| 1778070948 | 21.67° C | 91% | 1016.5 hPa | 0 mm | - | - | - |
| 1778070897 | 21.67° C | 91% | 1016.5 hPa | 0 mm | - | - | - |
| 1778070891 | 21.11° C | 91% | 1016.5 hPa | 0 mm | - | - | - |
| 1778070598 | 21.11° C | 91% | 1016.5 hPa | 0 mm | - | - | - |
| 1778070484 | 21.11° C | 91% | 1016.6 hPa | 0 mm | - | - | - |
| 1778070298 | 21.11° C | 91% | 1016.6 hPa | 0 mm | - | - | - |
| 1778069998 | 21.11° C | 92% | 1016.3 hPa | 0 mm | - | - | - |
| 1778069698 | 21.11° C | 92% | 1016.4 hPa | 0 mm | - | - | - |
| 1778069398 | 20.56° C | 92% | 1016.3 hPa | 0 mm | - | - | - |
| 1778069309 | 20.56° C | 92% | 1016.5 hPa | 0 mm | - | - | - |
* Rain latest hour (hover to see other rain measurements)
** Current wind speed in m/s (hover to see current wind gust speed)